Time;durP1;ratioP1;P1;durP2;ratioP2;P2;SDS_P1;SDS_P2;PMS_P1;PMS_P2;Temp;Humidity;BMP_temperature;BMP_pressure;BME280_temperature;BME280_humidity;BME280_pressure;Samples;Min_cycle;Max_cycle;Signal;HPM_P1;HPM_P2
2021/04/02 00:02:02;;;;;;;14.23;5.40;;;;;;;;;;6190990;23;20168;-90
2021/04/02 00:05:08;;;;;;;16.17;5.90;;;;;;;;;;6191183;23;20329;-88
2021/04/02 00:08:13;;;;;;;17.00;6.73;;;;;;;;;;6191980;23;20171;-88
2021/04/02 00:11:17;;;;;;;18.83;6.88;;;;;;;;;;6191031;23;20171;-88
2021/04/02 00:14:21;;;;;;;25.27;7.60;;;;;;;;;;6190708;23;20176;-88
2021/04/02 00:17:26;;;;;;;17.37;5.70;;;;;;;;;;6190777;23;20215;-89
2021/04/02 00:20:31;;;;;;;17.23;5.97;;;;;;;;;;6191319;23;20168;-89
2021/04/02 00:23:35;;;;;;;17.57;6.10;;;;;;;;;;6191516;23;20230;-89
2021/04/02 00:26:40;;;;;;;13.43;6.37;;;;;;;;;;6192278;23;20176;-90
2021/04/02 00:29:44;;;;;;;16.87;5.83;;;;;;;;;;6192537;23;20239;-89
2021/04/02 00:32:49;;;;;;;13.13;5.77;;;;;;;;;;6193069;23;20222;-89
2021/04/02 00:35:53;;;;;;;13.70;6.10;;;;;;;;;;6191234;23;20233;-88
2021/04/02 00:38:58;;;;;;;18.77;6.23;;;;;;;;;;6191883;23;20171;-89
2021/04/02 00:42:02;;;;;;;18.23;6.30;;;;;;;;;;6192101;23;20175;-88
2021/04/02 00:45:07;;;;;;;18.73;5.90;;;;;;;;;;6191068;23;20630;-90
2021/04/02 00:48:13;;;;;;;15.60;5.90;;;;;;;;;;6191379;23;20175;-89
2021/04/02 00:51:23;;;;;;;21.17;5.77;;;;;;;;;;6190869;23;20176;-88
2021/04/02 00:54:28;;;;;;;15.33;6.30;;;;;;;;;;6190835;23;20168;-88
2021/04/02 00:57:33;;;;;;;15.50;5.83;;;;;;;;;;6190518;23;20175;-88
2021/04/02 01:00:37;;;;;;;14.43;6.20;;;;;;;;;;6190920;23;20164;-89
2021/04/02 01:03:43;;;;;;;16.63;5.80;;;;;;;;;;6191425;23;20176;-89
2021/04/02 01:06:52;;;;;;;12.00;5.10;;;;;;;;;;6188860;23;20180;-90
2021/04/02 01:09:57;;;;;;;23.30;6.47;;;;;;;;;;6190376;23;20215;-89
2021/04/02 01:13:05;;;;;;;16.90;6.50;;;;;;;;;;6190493;23;20260;-89
2021/04/02 01:16:11;;;;;;;15.17;5.97;;;;;;;;;;6190216;23;20176;-91
2021/04/02 01:19:18;;;;;;;15.70;6.27;;;;;;;;;;6192129;23;20172;-90
2021/04/02 01:22:27;;;;;;;14.13;6.40;;;;;;;;;;6191173;23;20271;-89
2021/04/02 01:25:41;;;;;;;13.73;5.83;;;;;;;;;;6190320;23;20414;-90
2021/04/02 01:28:59;;;;;;;24.87;6.13;;;;;;;;;;6190936;23;20195;-89
2021/04/02 01:32:07;;;;;;;15.20;5.53;;;;;;;;;;6190152;23;20200;-89
2021/04/02 01:35:15;;;;;;;17.03;6.50;;;;;;;;;;6190597;23;20172;-89
2021/04/02 01:38:22;;;;;;;14.87;6.47;;;;;;;;;;6191434;23;20635;-89
2021/04/02 01:41:30;;;;;;;19.00;6.50;;;;;;;;;;6191789;23;20215;-90
2021/04/02 01:44:38;;;;;;;16.23;6.53;;;;;;;;;;6190924;23;20171;-90
2021/04/02 01:47:45;;;;;;;20.77;6.50;;;;;;;;;;6190638;23;20172;-89
2021/04/02 01:50:51;;;;;;;18.23;6.67;;;;;;;;;;6191135;23;20268;-91
2021/04/02 01:53:58;;;;;;;12.27;6.20;;;;;;;;;;6189679;23;20184;-89
2021/04/02 01:57:08;;;;;;;20.90;5.90;;;;;;;;;;6191377;23;20243;-90
2021/04/02 02:00:21;;;;;;;17.57;6.40;;;;;;;;;;6191946;23;20566;-89
2021/04/02 02:03:31;;;;;;;15.23;6.23;;;;;;;;;;6190106;23;20179;-88
2021/04/02 02:06:41;;;;;;;15.17;6.60;;;;;;;;;;6189405;23;20199;-89
2021/04/02 02:10:15;;;;;;;16.10;6.30;;;;;;;;;;6189586;23;20195;-90
2021/04/02 02:13:20;;;;;;;16.77;6.73;;;;;;;;;;6190182;23;20180;-91
2021/04/02 02:16:35;;;;;;;14.80;6.73;;;;;;;;;;6190288;23;20193;-90
2021/04/02 02:19:43;;;;;;;22.67;7.40;;;;;;;;;;6208057;23;20482;-89
2021/04/02 02:22:50;;;;;;;20.27;6.90;;;;;;;;;;6190779;23;20180;-90
2021/04/02 02:25:59;;;;;;;16.97;7.07;;;;;;;;;;6189462;23;20201;-90
2021/04/02 02:29:04;;;;;;;21.43;7.00;;;;;;;;;;6191250;23;20651;-89
2021/04/02 02:32:09;;;;;;;18.27;7.00;;;;;;;;;;6189894;23;20521;-88
2021/04/02 02:35:18;;;;;;;15.00;6.57;;;;;;;;;;6189821;23;20247;-90
2021/04/02 02:38:25;;;;;;;16.97;6.70;;;;;;;;;;6190111;23;20206;-89
2021/04/02 02:41:31;;;;;;;17.23;6.83;;;;;;;;;;6190007;23;20167;-90
2021/04/02 02:44:39;;;;;;;12.77;6.60;;;;;;;;;;6206937;23;20180;-89
2021/04/02 02:47:45;;;;;;;22.17;7.00;;;;;;;;;;6188820;23;20224;-89
2021/04/02 02:50:53;;;;;;;23.67;6.90;;;;;;;;;;6189571;23;20248;-90
2021/04/02 02:53:59;;;;;;;15.27;6.67;;;;;;;;;;6189550;23;20175;-90
2021/04/02 02:57:05;;;;;;;19.53;6.40;;;;;;;;;;6187715;23;20183;-89
2021/04/02 03:00:12;;;;;;;16.37;6.67;;;;;;;;;;6187229;23;20168;-89
2021/04/02 03:03:19;;;;;;;17.43;6.73;;;;;;;;;;6187265;23;20167;-88
2021/04/02 03:06:26;;;;;;;14.33;6.80;;;;;;;;;;6188176;23;20222;-89
2021/04/02 03:09:33;;;;;;;18.70;6.73;;;;;;;;;;6188553;23;20238;-90
2021/04/02 03:12:39;;;;;;;20.20;7.43;;;;;;;;;;6188833;23;20235;-89
2021/04/02 03:15:45;;;;;;;23.30;6.40;;;;;;;;;;6188610;23;20241;-90
2021/04/02 03:18:52;;;;;;;17.13;6.90;;;;;;;;;;6187871;23;20583;-91
2021/04/02 03:21:59;;;;;;;16.57;6.53;;;;;;;;;;6189062;23;20168;-90
2021/04/02 03:25:20;;;;;;;15.00;7.40;;;;;;;;;;6188771;23;20180;-90
2021/04/02 03:28:30;;;;;;;16.83;6.93;;;;;;;;;;6188845;23;20187;-90
2021/04/02 03:31:38;;;;;;;17.77;7.17;;;;;;;;;;6192842;23;20163;-89
2021/04/02 03:34:44;;;;;;;17.37;6.90;;;;;;;;;;6190003;23;20183;-90
2021/04/02 03:37:54;;;;;;;18.60;6.73;;;;;;;;;;6190068;23;20196;-89
2021/04/02 03:41:00;;;;;;;21.20;7.00;;;;;;;;;;6191076;23;20232;-90
2021/04/02 03:44:06;;;;;;;22.27;7.37;;;;;;;;;;6191091;23;20550;-89
2021/04/02 03:47:14;;;;;;;15.60;6.30;;;;;;;;;;6191102;23;20175;-90
2021/04/02 03:50:21;;;;;;;14.00;6.17;;;;;;;;;;6190498;23;20195;-89
2021/04/02 03:53:30;;;;;;;26.33;6.60;;;;;;;;;;6190240;23;20168;-89
2021/04/02 03:56:37;;;;;;;17.20;6.43;;;;;;;;;;6189586;23;20263;-89
2021/04/02 03:59:47;;;;;;;15.30;7.70;;;;;;;;;;6191110;23;20171;-89
2021/04/02 04:02:53;;;;;;;18.17;6.80;;;;;;;;;;6191699;23;20179;-89
2021/04/02 04:06:00;;;;;;;16.37;6.80;;;;;;;;;;6189851;23;20175;-89
2021/04/02 04:09:08;;;;;;;21.37;6.57;;;;;;;;;;6189919;23;20230;-90
2021/04/02 04:12:14;;;;;;;17.87;6.57;;;;;;;;;;6190163;23;20557;-89
2021/04/02 04:15:25;;;;;;;25.63;6.83;;;;;;;;;;6190075;23;20582;-89
2021/04/02 04:18:33;;;;;;;18.03;6.43;;;;;;;;;;6192124;23;20172;-90
2021/04/02 04:21:40;;;;;;;19.37;7.00;;;;;;;;;;6208018;23;20168;-91
2021/04/02 04:24:48;;;;;;;19.67;6.93;;;;;;;;;;6189911;23;20175;-90
2021/04/02 04:27:54;;;;;;;17.77;7.10;;;;;;;;;;6190449;23;20215;-89
2021/04/02 04:31:02;;;;;;;19.67;6.33;;;;;;;;;;6190428;23;20621;-90
2021/04/02 04:34:06;;;;;;;16.33;6.60;;;;;;;;;;6191045;23;20167;-90
2021/04/02 04:37:14;;;;;;;20.30;6.83;;;;;;;;;;6190229;23;20183;-89
2021/04/02 04:40:20;;;;;;;14.40;6.30;;;;;;;;;;6189660;23;20212;-90
2021/04/02 04:43:25;;;;;;;18.10;6.67;;;;;;;;;;6191042;23;20191;-89
2021/04/02 04:46:29;;;;;;;18.67;7.50;;;;;;;;;;6190005;23;20172;-90
2021/04/02 04:49:33;;;;;;;20.97;6.80;;;;;;;;;;6190992;23;20224;-90
2021/04/02 04:52:40;;;;;;;14.77;6.63;;;;;;;;;;6191276;23;20289;-90
2021/04/02 04:55:45;;;;;;;13.77;6.00;;;;;;;;;;6189537;23;20199;-90
2021/04/02 04:58:52;;;;;;;18.93;6.60;;;;;;;;;;6189442;23;20179;-90
2021/04/02 05:01:57;;;;;;;20.23;7.00;;;;;;;;;;6190527;23;20167;-90
2021/04/02 05:05:02;;;;;;;20.73;7.67;;;;;;;;;;6192449;23;20175;-90
2021/04/02 05:08:09;;;;;;;20.53;7.50;;;;;;;;;;6191603;23;20187;-90
2021/04/02 05:11:15;;;;;;;17.97;7.73;;;;;;;;;;6190229;23;20199;-89
2021/04/02 05:14:20;;;;;;;23.30;7.73;;;;;;;;;;6190683;23;20269;-89
2021/04/02 05:17:25;;;;;;;15.70;7.53;;;;;;;;;;6190463;23;20199;-90
2021/04/02 05:20:33;;;;;;;17.27;7.00;;;;;;;;;;6192658;23;20512;-90
2021/04/02 05:23:39;;;;;;;22.00;7.67;;;;;;;;;;6190570;23;20180;-90
2021/04/02 05:26:44;;;;;;;19.43;6.97;;;;;;;;;;6207459;23;20632;-90
2021/04/02 05:29:48;;;;;;;18.17;7.00;;;;;;;;;;6189439;23;20215;-90
2021/04/02 05:32:52;;;;;;;20.87;7.87;;;;;;;;;;6191766;23;20491;-90
2021/04/02 05:35:56;;;;;;;20.10;8.17;;;;;;;;;;6190773;23;20303;-89
2021/04/02 05:39:02;;;;;;;27.03;10.10;;;;;;;;;;6192513;23;20226;-89
2021/04/02 05:42:07;;;;;;;20.93;8.43;;;;;;;;;;6192349;23;20212;-89
2021/04/02 05:45:13;;;;;;;22.80;8.93;;;;;;;;;;6190400;23;20172;-89
2021/04/02 05:48:18;;;;;;;19.73;9.30;;;;;;;;;;6189127;23;20196;-90
2021/04/02 05:51:22;;;;;;;20.97;8.87;;;;;;;;;;6190500;23;20264;-90
2021/04/02 05:54:29;;;;;;;20.43;8.13;;;;;;;;;;6190869;23;20176;-91
2021/04/02 05:57:34;;;;;;;25.33;8.90;;;;;;;;;;6189411;23;20210;-90
2021/04/02 06:00:39;;;;;;;24.73;8.03;;;;;;;;;;6189016;23;20216;-90
2021/04/02 06:03:43;;;;;;;16.13;8.57;;;;;;;;;;6190718;23;20234;-90
2021/04/02 06:06:48;;;;;;;19.83;7.93;;;;;;;;;;6190759;23;20171;-91
2021/04/02 06:09:54;;;;;;;19.97;8.20;;;;;;;;;;6190669;23;20528;-91
2021/04/02 06:12:59;;;;;;;21.33;8.47;;;;;;;;;;6208876;23;20171;-90
2021/04/02 06:16:03;;;;;;;24.07;8.80;;;;;;;;;;6189544;23;20191;-88
2021/04/02 06:19:08;;;;;;;19.10;8.60;;;;;;;;;;6190123;23;20187;-91
2021/04/02 06:22:15;;;;;;;24.08;9.40;;;;;;;;;;6190779;23;20172;-88
2021/04/02 06:25:20;;;;;;;39.38;14.52;;;;;;;;;;6190812;23;20623;-89
2021/04/02 06:28:26;;;;;;;50.10;19.08;;;;;;;;;;6190743;23;20171;-89
2021/04/02 06:31:35;;;;;;;54.70;23.42;;;;;;;;;;6190408;23;20171;-87
2021/04/02 06:34:48;;;;;;;59.85;24.05;;;;;;;;;;6191234;23;20171;-89
2021/04/02 06:37:55;;;;;;;69.43;28.63;;;;;;;;;;6192316;23;20172;-90
2021/04/02 06:41:05;;;;;;;77.55;30.77;;;;;;;;;;6191660;23;20172;-90
2021/04/02 06:44:10;;;;;;;74.00;31.63;;;;;;;;;;6190046;23;20407;-90
2021/04/02 06:47:14;;;;;;;68.75;30.92;;;;;;;;;;6189425;23;20168;-88
2021/04/02 06:50:20;;;;;;;72.93;31.52;;;;;;;;;;6189472;23;20199;-89
2021/04/02 06:53:25;;;;;;;71.82;30.33;;;;;;;;;;6190843;23;20676;-89
2021/04/02 06:56:34;;;;;;;68.72;30.42;;;;;;;;;;6191368;23;20200;-90
2021/04/02 06:59:40;;;;;;;68.60;31.30;;;;;;;;;;6190350;23;20225;-89
2021/04/02 07:02:45;;;;;;;74.22;30.60;;;;;;;;;;6190064;23;20171;-90
2021/04/02 07:05:51;;;;;;;73.53;30.88;;;;;;;;;;6192793;23;20188;-89
2021/04/02 07:08:57;;;;;;;69.25;30.73;;;;;;;;;;6193108;23;20219;-90
2021/04/02 07:12:03;;;;;;;74.03;30.38;;;;;;;;;;6191717;23;20168;-89
2021/04/02 07:15:08;;;;;;;74.05;30.23;;;;;;;;;;6191357;23;20176;-89
2021/04/02 07:18:13;;;;;;;71.47;28.65;;;;;;;;;;6191660;23;20175;-89
2021/04/02 07:21:17;;;;;;;73.30;29.75;;;;;;;;;;6193874;23;20221;-89
2021/04/02 07:24:22;;;;;;;66.15;27.40;;;;;;;;;;6191858;23;20203;-89
2021/04/02 07:27:28;;;;;;;64.43;28.38;;;;;;;;;;6192150;23;20619;-90
2021/04/02 07:30:32;;;;;;;64.38;28.80;;;;;;;;;;6191283;23;20490;-89
2021/04/02 07:33:39;;;;;;;64.78;26.42;;;;;;;;;;6192063;23;20175;-89
2021/04/02 07:36:46;;;;;;;60.55;25.75;;;;;;;;;;6191884;23;20171;-90
2021/04/02 07:39:55;;;;;;;60.47;25.63;;;;;;;;;;6193687;23;20187;-86
2021/04/02 07:43:06;;;;;;;56.35;25.98;;;;;;;;;;6193022;23;20215;-90
2021/04/02 07:46:13;;;;;;;47.03;22.67;;;;;;;;;;6193896;23;20175;-89
2021/04/02 07:49:18;;;;;;;57.13;24.48;;;;;;;;;;6192621;23;20245;-90
2021/04/02 07:52:30;;;;;;;56.38;23.88;;;;;;;;;;6193784;23;20235;-89
2021/04/02 07:55:37;;;;;;;48.95;22.67;;;;;;;;;;6193598;23;20686;-90
2021/04/02 07:58:47;;;;;;;48.83;21.80;;;;;;;;;;6194194;23;20232;-89
2021/04/02 08:01:57;;;;;;;45.67;21.35;;;;;;;;;;6193737;23;20171;-91
2021/04/02 08:05:01;;;;;;;43.83;19.85;;;;;;;;;;6195297;23;20295;-90
2021/04/02 08:08:14;;;;;;;41.13;20.40;;;;;;;;;;6194769;23;20171;-90
2021/04/02 08:11:20;;;;;;;37.63;19.42;;;;;;;;;;6176860;23;20241;-90
2021/04/02 08:14:33;;;;;;;36.03;19.88;;;;;;;;;;6195593;23;20168;-90
2021/04/02 08:17:39;;;;;;;35.30;19.48;;;;;;;;;;6177987;23;20223;-90
2021/04/02 08:20:44;;;;;;;34.85;18.58;;;;;;;;;;6198699;23;20257;-90
2021/04/02 08:23:49;;;;;;;34.80;19.40;;;;;;;;;;6184309;23;20191;-90
2021/04/02 08:26:55;;;;;;;37.95;19.20;;;;;;;;;;6181676;23;20228;-90
2021/04/02 08:30:06;;;;;;;33.42;18.60;;;;;;;;;;6179953;23;20195;-90
2021/04/02 08:33:11;;;;;;;31.65;17.48;;;;;;;;;;6195669;23;20167;-91
2021/04/02 08:36:19;;;;;;;37.40;18.58;;;;;;;;;;6177432;23;20227;-90
2021/04/02 08:39:25;;;;;;;35.40;19.63;;;;;;;;;;6195866;23;20309;-91
2021/04/02 08:42:38;;;;;;;30.95;17.73;;;;;;;;;;6194337;23;20159;-89
2021/04/02 08:45:44;;;;;;;29.25;17.55;;;;;;;;;;6196372;23;20167;-91
2021/04/02 08:48:49;;;;;;;30.05;17.85;;;;;;;;;;6194591;23;20172;-90
2021/04/02 08:51:54;;;;;;;28.27;17.73;;;;;;;;;;6196040;23;20168;-91
2021/04/02 08:55:00;;;;;;;30.52;18.35;;;;;;;;;;6176674;23;20175;-90
2021/04/02 08:58:05;;;;;;;33.00;19.33;;;;;;;;;;6194857;23;20168;-90
2021/04/02 09:01:11;;;;;;;36.35;19.83;;;;;;;;;;6193251;23;20167;-90
2021/04/02 09:04:17;;;;;;;31.48;19.40;;;;;;;;;;6176829;23;20171;-88
2021/04/02 09:07:21;;;;;;;33.30;19.42;;;;;;;;;;6194457;23;20187;-90
2021/04/02 09:10:27;;;;;;;36.65;19.55;;;;;;;;;;6194256;23;20311;-90
2021/04/02 09:13:36;;;;;;;38.63;20.30;;;;;;;;;;6193151;23;20258;-90
2021/04/02 09:16:42;;;;;;;35.47;19.77;;;;;;;;;;6193765;23;20179;-91
2021/04/02 09:19:47;;;;;;;33.70;19.95;;;;;;;;;;6195753;23;20877;-90
2021/04/02 09:22:53;;;;;;;35.60;20.80;;;;;;;;;;6195056;23;20203;-90
2021/04/02 09:26:00;;;;;;;36.38;20.48;;;;;;;;;;6177100;23;20171;-90
2021/04/02 09:29:08;;;;;;;36.30;21.20;;;;;;;;;;6195979;23;20276;-90
2021/04/02 09:32:14;;;;;;;39.15;21.13;;;;;;;;;;6182033;23;20188;-91
2021/04/02 09:35:20;;;;;;;34.97;20.73;;;;;;;;;;6177707;23;20228;-89
2021/04/02 09:38:26;;;;;;;34.65;20.55;;;;;;;;;;6178533;23;20195;-89
2021/04/02 09:41:31;;;;;;;40.22;20.50;;;;;;;;;;6178465;23;20175;-89
2021/04/02 09:44:38;;;;;;;44.15;21.38;;;;;;;;;;6195185;23;20239;-90
2021/04/02 09:47:44;;;;;;;36.90;20.63;;;;;;;;;;6176316;23;20252;-90
2021/04/02 09:50:49;;;;;;;38.33;20.98;;;;;;;;;;6177432;23;20330;-90
2021/04/02 09:53:53;;;;;;;37.28;21.38;;;;;;;;;;6193433;23;20222;-90
2021/04/02 09:56:59;;;;;;;37.97;20.73;;;;;;;;;;6194205;23;20195;-88
2021/04/02 15:45:37;;;;;;;7.82;3.40;;;;;;;;;;6078492;22;1018925;-88
2021/04/02 15:48:42;;;;;;;5.65;3.50;;;;;;;;;;6125264;23;20172;-88
2021/04/02 15:51:46;;;;;;;6.30;3.42;;;;;;;;;;6123393;23;20192;-88
2021/04/02 15:54:52;;;;;;;4.97;2.67;;;;;;;;;;6143192;23;20234;-89
2021/04/02 15:57:56;;;;;;;5.68;3.17;;;;;;;;;;6126638;23;20200;-89
2021/04/02 16:01:04;;;;;;;12.20;3.28;;;;;;;;;;6127292;23;20217;-88
2021/04/02 16:04:08;;;;;;;5.47;3.20;;;;;;;;;;6125458;23;20189;-90
2021/04/02 16:07:14;;;;;;;4.65;3.08;;;;;;;;;;6125413;23;20176;-89
2021/04/02 16:10:20;;;;;;;6.13;3.22;;;;;;;;;;6123513;23;20213;-90
2021/04/02 16:13:24;;;;;;;4.32;2.92;;;;;;;;;;6125185;23;20161;-89
2021/04/02 16:16:31;;;;;;;6.53;3.08;;;;;;;;;;6125488;23;20209;-90
2021/04/02 16:19:36;;;;;;;6.13;3.38;;;;;;;;;;6126387;23;20185;-89
2021/04/02 16:22:40;;;;;;;7.00;3.33;;;;;;;;;;6124887;23;20168;-89
2021/04/02 16:25:45;;;;;;;5.05;2.95;;;;;;;;;;6127740;23;20172;-90
2021/04/02 16:28:50;;;;;;;5.30;2.88;;;;;;;;;;6129592;23;20411;-89
2021/04/02 16:31:56;;;;;;;8.38;3.45;;;;;;;;;;6146175;23;20211;-89
2021/04/02 16:35:01;;;;;;;5.18;3.28;;;;;;;;;;6128917;23;20242;-89
2021/04/02 16:38:07;;;;;;;6.07;3.35;;;;;;;;;;6127394;23;20332;-90
2021/04/02 16:41:11;;;;;;;7.60;3.70;;;;;;;;;;6128122;23;20240;-91
2021/04/02 16:44:16;;;;;;;5.68;3.30;;;;;;;;;;6120990;23;20223;-90
2021/04/02 16:47:21;;;;;;;7.28;3.22;;;;;;;;;;6117927;23;20201;-90
2021/04/02 16:50:27;;;;;;;7.65;3.30;;;;;;;;;;6119121;23;20172;-90
2021/04/02 16:53:31;;;;;;;8.75;3.63;;;;;;;;;;6118653;23;20229;-91
2021/04/02 16:56:36;;;;;;;7.28;3.05;;;;;;;;;;6120574;23;20177;-91
2021/04/02 16:59:40;;;;;;;8.05;3.47;;;;;;;;;;6118235;23;20684;-90
2021/04/02 17:02:46;;;;;;;6.38;3.38;;;;;;;;;;6119439;23;20169;-89
2021/04/02 17:05:51;;;;;;;5.80;3.20;;;;;;;;;;6117489;23;20173;-89
2021/04/02 17:08:55;;;;;;;5.40;3.42;;;;;;;;;;6119948;23;20173;-90
2021/04/02 17:12:00;;;;;;;6.15;3.70;;;;;;;;;;6117726;23;20283;-89
2021/04/02 17:15:06;;;;;;;7.78;3.40;;;;;;;;;;6118921;23;20196;-90
2021/04/02 17:18:12;;;;;;;7.13;3.22;;;;;;;;;;6118619;23;20640;-89
2021/04/02 17:21:16;;;;;;;5.88;3.63;;;;;;;;;;6116272;23;20181;-88
2021/04/02 17:24:21;;;;;;;6.68;3.80;;;;;;;;;;6118437;23;20197;-90
2021/04/02 17:27:26;;;;;;;6.70;3.67;;;;;;;;;;6119630;23;20223;-89
2021/04/02 17:30:30;;;;;;;5.63;3.50;;;;;;;;;;6120474;23;20188;-89
2021/04/02 17:33:36;;;;;;;8.05;3.42;;;;;;;;;;6120041;23;20181;-88
2021/04/02 17:36:42;;;;;;;9.23;3.47;;;;;;;;;;6118568;23;20172;-89
2021/04/02 17:39:47;;;;;;;6.43;3.50;;;;;;;;;;6116968;23;20173;-89
2021/04/02 17:42:51;;;;;;;7.57;3.42;;;;;;;;;;6115334;23;20641;-89
2021/04/02 17:45:56;;;;;;;6.60;3.70;;;;;;;;;;6116513;23;20218;-89
2021/04/02 17:49:01;;;;;;;6.50;3.95;;;;;;;;;;6116847;23;20172;-89
2021/04/02 17:52:06;;;;;;;7.00;3.35;;;;;;;;;;6117033;23;20216;-89
2021/04/02 17:55:11;;;;;;;5.35;3.15;;;;;;;;;;6116111;23;20676;-89
2021/04/02 17:58:16;;;;;;;6.25;3.33;;;;;;;;;;6116899;23;20204;-90
2021/04/02 18:01:21;;;;;;;10.00;3.33;;;;;;;;;;6117269;23;20176;-90
2021/04/02 18:04:25;;;;;;;5.40;3.15;;;;;;;;;;6117081;23;20495;-89
2021/04/02 18:07:30;;;;;;;16.63;7.00;;;;;;;;;;6117445;23;20227;-89
2021/04/02 18:10:35;;;;;;;12.63;5.35;;;;;;;;;;6116415;23;20249;-89
2021/04/02 18:13:40;;;;;;;6.00;3.67;;;;;;;;;;6116758;23;20257;-90
2021/04/02 18:16:45;;;;;;;5.57;3.38;;;;;;;;;;6115302;23;20232;-89
2021/04/02 18:19:50;;;;;;;5.72;3.33;;;;;;;;;;6116245;23;20216;-89
2021/04/02 18:22:58;;;;;;;5.13;3.40;;;;;;;;;;6117326;23;20225;-90
2021/04/02 18:26:02;;;;;;;5.50;3.13;;;;;;;;;;6116278;23;20574;-89
2021/04/02 18:29:07;;;;;;;4.88;2.88;;;;;;;;;;6117095;23;20250;-89
2021/04/02 18:32:12;;;;;;;6.00;3.53;;;;;;;;;;6118360;23;20181;-89
2021/04/02 18:35:18;;;;;;;6.57;3.03;;;;;;;;;;6117551;23;20177;-89
2021/04/02 18:38:22;;;;;;;5.20;3.45;;;;;;;;;;6116776;23;20177;-88
2021/04/02 18:41:27;;;;;;;5.63;2.90;;;;;;;;;;6116647;23;20226;-89
2021/04/02 18:44:32;;;;;;;7.97;3.30;;;;;;;;;;6116968;23;20197;-88
2021/04/02 18:47:36;;;;;;;4.72;2.75;;;;;;;;;;6117482;23;20217;-89
2021/04/02 18:50:41;;;;;;;6.53;3.42;;;;;;;;;;6118151;23;20213;-89
2021/04/02 18:53:46;;;;;;;7.30;3.35;;;;;;;;;;6119748;23;20165;-89
2021/04/02 18:56:51;;;;;;;6.05;3.40;;;;;;;;;;6116987;23;20506;-90
2021/04/02 18:59:55;;;;;;;5.55;3.20;;;;;;;;;;6117873;23;20173;-89
2021/04/02 19:03:00;;;;;;;5.28;3.08;;;;;;;;;;6116037;23;20192;-90
2021/04/02 19:06:05;;;;;;;4.13;2.95;;;;;;;;;;6116457;23;20189;-90
2021/04/02 19:09:12;;;;;;;5.45;3.08;;;;;;;;;;6117641;23;20218;-90
2021/04/02 19:12:19;;;;;;;7.00;3.10;;;;;;;;;;6117074;23;20197;-88
2021/04/02 19:15:23;;;;;;;5.25;3.15;;;;;;;;;;6117174;23;20174;-88
2021/04/02 19:18:28;;;;;;;9.82;2.85;;;;;;;;;;6118359;23;20224;-88
2021/04/02 19:21:33;;;;;;;4.03;2.47;;;;;;;;;;6118237;23;20164;-90
2021/04/02 19:24:37;;;;;;;5.60;2.87;;;;;;;;;;6119053;23;20220;-88
2021/04/02 19:27:42;;;;;;;6.57;3.43;;;;;;;;;;6119526;23;20244;-89
2021/04/02 19:30:46;;;;;;;5.70;2.87;;;;;;;;;;6118368;23;20236;-89
2021/04/02 19:33:50;;;;;;;4.50;2.73;;;;;;;;;;6118018;23;20180;-89
2021/04/02 19:36:55;;;;;;;5.72;2.65;;;;;;;;;;6116640;23;20177;-90
2021/04/02 19:40:00;;;;;;;3.70;2.25;;;;;;;;;;6118611;23;20176;-89
2021/04/02 19:43:05;;;;;;;4.60;2.60;;;;;;;;;;6118764;23;20240;-88
2021/04/02 19:46:11;;;;;;;4.75;2.70;;;;;;;;;;6119769;23;20242;-89
2021/04/02 19:49:16;;;;;;;5.00;2.63;;;;;;;;;;6119577;23;20173;-89
2021/04/02 19:52:21;;;;;;;4.80;2.45;;;;;;;;;;6118764;23;20648;-90
2021/04/02 19:55:26;;;;;;;4.30;2.70;;;;;;;;;;6116687;23;20174;-89
2021/04/02 19:58:31;;;;;;;4.57;2.50;;;;;;;;;;6116598;23;20172;-89
2021/04/02 20:01:35;;;;;;;4.40;2.80;;;;;;;;;;6118046;23;20189;-88
2021/04/02 20:04:40;;;;;;;5.30;2.60;;;;;;;;;;6118428;23;20177;-88
2021/04/02 20:07:46;;;;;;;4.13;2.40;;;;;;;;;;6116865;23;20173;-89
2021/04/02 20:10:50;;;;;;;4.67;2.50;;;;;;;;;;6117477;23;20213;-90
2021/04/02 20:13:55;;;;;;;4.87;2.40;;;;;;;;;;6115403;23;20156;-89
2021/04/02 20:16:59;;;;;;;4.43;2.50;;;;;;;;;;6114309;23;20193;-89
2021/04/02 20:20:04;;;;;;;3.87;2.40;;;;;;;;;;6116257;23;20200;-89
2021/04/02 20:23:09;;;;;;;4.00;2.30;;;;;;;;;;6116809;23;20673;-89
2021/04/02 20:26:14;;;;;;;4.03;2.23;;;;;;;;;;6118160;23;20252;-89
2021/04/02 20:29:19;;;;;;;4.07;2.00;;;;;;;;;;6116418;23;20229;-89
2021/04/02 20:32:24;;;;;;;4.27;2.30;;;;;;;;;;6116055;23;20197;-89
2021/04/02 20:35:28;;;;;;;7.23;2.80;;;;;;;;;;6116875;23;20173;-90
2021/04/02 20:38:33;;;;;;;5.87;2.43;;;;;;;;;;6116472;23;20621;-88
2021/04/02 20:41:38;;;;;;;4.50;2.20;;;;;;;;;;6117270;23;20223;-90
2021/04/02 20:44:43;;;;;;;4.60;2.30;;;;;;;;;;6114372;23;20241;-88
2021/04/02 20:47:48;;;;;;;5.10;2.00;;;;;;;;;;6116348;23;20161;-90
2021/04/02 20:50:52;;;;;;;4.97;2.00;;;;;;;;;;6116224;23;20245;-89
2021/04/02 20:53:59;;;;;;;3.30;2.03;;;;;;;;;;6117007;23;20173;-89
2021/04/02 20:57:04;;;;;;;4.00;1.80;;;;;;;;;;6116861;23;20177;-90
2021/04/02 21:00:10;;;;;;;3.47;1.87;;;;;;;;;;6116544;23;20680;-89
2021/04/02 21:03:15;;;;;;;4.23;2.13;;;;;;;;;;6117770;23;20240;-89
2021/04/02 21:06:19;;;;;;;2.97;2.10;;;;;;;;;;6116195;23;20219;-88
2021/04/02 21:09:24;;;;;;;5.73;2.27;;;;;;;;;;6117576;23;20189;-89
2021/04/02 21:12:29;;;;;;;4.10;2.10;;;;;;;;;;6117330;23;20321;-88
2021/04/02 21:15:33;;;;;;;6.57;2.60;;;;;;;;;;6115508;23;20509;-88
2021/04/02 21:18:37;;;;;;;4.63;2.17;;;;;;;;;;6117341;23;20197;-89
2021/04/02 21:21:44;;;;;;;3.53;2.20;;;;;;;;;;6117452;23;20209;-89
2021/04/02 21:24:50;;;;;;;4.10;2.20;;;;;;;;;;6120186;23;20169;-89
2021/04/02 21:27:54;;;;;;;3.60;1.87;;;;;;;;;;6119690;23;20247;-89
2021/04/02 21:31:00;;;;;;;4.13;2.27;;;;;;;;;;6117850;23;20213;-89
2021/04/02 21:34:06;;;;;;;4.17;2.10;;;;;;;;;;6117462;23;20178;-90
2021/04/02 21:37:11;;;;;;;6.07;2.23;;;;;;;;;;6115969;23;20177;-89
2021/04/02 21:40:20;;;;;;;5.57;2.70;;;;;;;;;;6116337;23;20174;-90
2021/04/02 21:43:25;;;;;;;5.17;2.40;;;;;;;;;;6115278;23;20169;-90
2021/04/02 21:46:30;;;;;;;5.80;2.07;;;;;;;;;;6115210;23;20181;-89
2021/04/02 21:49:34;;;;;;;4.20;2.30;;;;;;;;;;6114963;23;20213;-89
2021/04/02 21:52:40;;;;;;;5.70;2.70;;;;;;;;;;6114339;23;20253;-89
2021/04/02 21:55:45;;;;;;;5.80;2.97;;;;;;;;;;6114569;23;20194;-88
2021/04/02 21:58:49;;;;;;;6.23;3.27;;;;;;;;;;6114507;23;20213;-89
2021/04/02 22:01:56;;;;;;;8.80;3.03;;;;;;;;;;6114015;23;20174;-90
2021/04/02 22:05:00;;;;;;;7.17;2.87;;;;;;;;;;6113921;23;20193;-89
2021/04/02 22:08:05;;;;;;;6.63;2.60;;;;;;;;;;6112943;23;20177;-89
2021/04/02 22:11:11;;;;;;;5.53;2.53;;;;;;;;;;6113886;23;20213;-90
2021/04/02 22:14:16;;;;;;;4.77;2.70;;;;;;;;;;6114197;23;20255;-89
2021/04/02 22:17:20;;;;;;;5.77;2.60;;;;;;;;;;6113730;23;20221;-88
2021/04/02 22:20:26;;;;;;;6.60;2.53;;;;;;;;;;6114167;23;20160;-89
2021/04/02 22:23:32;;;;;;;5.70;2.40;;;;;;;;;;6114133;23;20180;-88
2021/04/02 22:26:37;;;;;;;5.47;3.13;;;;;;;;;;6131351;23;20181;-88
2021/04/02 22:29:42;;;;;;;4.83;2.77;;;;;;;;;;6114963;23;20177;-89
2021/04/02 22:32:47;;;;;;;4.40;2.70;;;;;;;;;;6113964;23;20197;-89
2021/04/02 22:35:52;;;;;;;5.33;2.80;;;;;;;;;;6114035;23;20613;-89
2021/04/02 22:38:57;;;;;;;5.17;2.80;;;;;;;;;;6113411;23;20173;-88
2021/04/02 22:42:03;;;;;;;4.40;2.63;;;;;;;;;;6112353;23;20193;-88
2021/04/02 22:45:08;;;;;;;5.70;2.73;;;;;;;;;;6113041;23;20217;-89
2021/04/02 22:48:13;;;;;;;4.90;2.60;;;;;;;;;;6113747;23;20181;-88
2021/04/02 22:51:18;;;;;;;6.33;2.50;;;;;;;;;;6114327;23;20232;-88
2021/04/02 22:54:24;;;;;;;7.13;2.80;;;;;;;;;;6114626;23;20173;-89
2021/04/02 22:57:30;;;;;;;5.13;2.73;;;;;;;;;;6113773;23;20176;-88
2021/04/02 23:00:36;;;;;;;7.20;2.93;;;;;;;;;;6113792;23;20180;-89
2021/04/02 23:03:40;;;;;;;5.33;2.93;;;;;;;;;;6114513;23;20218;-88
2021/04/02 23:06:44;;;;;;;6.27;3.03;;;;;;;;;;6113705;23;20177;-89
2021/04/02 23:09:48;;;;;;;5.07;2.90;;;;;;;;;;6113771;23;20172;-88
2021/04/02 23:12:54;;;;;;;5.60;2.70;;;;;;;;;;6113794;23;20284;-88
2021/04/02 23:15:59;;;;;;;4.63;2.57;;;;;;;;;;6113055;23;20666;-89
2021/04/02 23:19:03;;;;;;;5.23;2.70;;;;;;;;;;6113349;23;20617;-88
2021/04/02 23:22:08;;;;;;;5.17;2.70;;;;;;;;;;6114835;23;20173;-88
2021/04/02 23:25:14;;;;;;;4.53;2.50;;;;;;;;;;6112946;23;20177;-89
2021/04/02 23:28:19;;;;;;;5.40;2.87;;;;;;;;;;6113836;23;20185;-88
2021/04/02 23:31:23;;;;;;;4.20;2.50;;;;;;;;;;6112860;23;20669;-88
2021/04/02 23:34:28;;;;;;;4.83;2.83;;;;;;;;;;6114662;23;20207;-89
2021/04/02 23:37:32;;;;;;;6.23;3.03;;;;;;;;;;6113459;23;20176;-88
2021/04/02 23:40:39;;;;;;;5.37;2.90;;;;;;;;;;6113212;23;20297;-88
2021/04/02 23:43:44;;;;;;;6.40;3.17;;;;;;;;;;6113030;23;20173;-89
2021/04/02 23:46:48;;;;;;;5.30;2.77;;;;;;;;;;6112653;23;20541;-89
2021/04/02 23:49:53;;;;;;;5.40;2.57;;;;;;;;;;6113433;23;20499;-88
2021/04/02 23:52:58;;;;;;;5.03;2.80;;;;;;;;;;6113549;23;20297;-88
2021/04/02 23:56:03;;;;;;;5.03;3.00;;;;;;;;;;6115721;23;20173;-89
2021/04/02 23:59:08;;;;;;;6.90;2.87;;;;;;;;;;6135201;23;20176;-89
